Harrisburg, PA (17123)

8:23 AM EST on November 26, 2014 (GMT -0500)
Bellevue Park | Change Station
CLOSE
Current Station
Personal Weather Station
Location: Harrisburg, PA
Elevation: 498 ft
Nearby Weather Stations
Active Advisory: Winter Storm Warning

Elev 498 ft 40.27 °N, 76.85 °W | Updated 7 seconds ago

Rain
Rain
36.7 °F
Feels Like 37 °F
N
0.0
Wind Variable Wind from ESE
Gusts 1.0 mph

Today
High -- | Low -- °F
--% Chance of Precip.
Yesterday
High -- | Low -- °F
Precip. -- in
7:05 AM 4:43 PM
Waxing Crescent, 19% visible
Pressure 30.11 in
Visibility 3.0 miles
Clouds Overcast 2000 ft
Windchill 37 °F
Dew Point 34 °F
Humidity 90%
Rainfall 0.11 in
Snow Depth Not available.
UV 0 out of 12
Pollen .10 out of 12
Air Quality Not available.
Flu Activity Not available.
METAR KMDT 261256Z 03004KT 3SM -RA BR OVC020 04/02 A3010 RMK AO2 SFC VIS 6 SLP195 P0005 T00390017

More Conditions Fewer Conditions

Pressure 30.11 in
Visibility 3.0 miles
Clouds Overcast 2000 ft
Windchill 37 °F
Dew Point 34 °F
Humidity 90%
Rainfall 0.11 in
Snow Depth Not available.
UV 0 out of 12
Pollen .10 out of 12
Air Quality Not available.
Flu Activity Not available.
METAR KMDT 261256Z 03004KT 3SM -RA BR OVC020 04/02 A3010 RMK AO2 SFC VIS 6 SLP195 P0005 T00390017

More Conditions Fewer Conditions

10-Day Weather Forecast

Almanac

Astronomy

Nov. 26, 2014 Rise Set
Actual Time
Civil Twilight
Nautical Twilight
Astronomical Twilight
Moon
Length of Visible Light
Length of Day
Tomorrow will be .
, % of the Moon is Illuminated

Today's Extremes

State Highs State Lows

Community

WunderPhotos

Upload Photos

1,773,723 photos uploaded!

WunderBlogs® & News

Nearby

Air Quality

  Air Quality AQ Index Pollutant
Not available.

Snow Depth

Station Depth Elevation

Earthquake Activity

City Distance Mag. Time & Date
Minimum magnitude displayed is 2.5.

Coastal Water Temperatures

Place Temperature

Nearby Weather Stations